Flight Track Log - Related Links

Times and Time Zones

All times are in EDT time to prevent confusion due to time zone crossing. See the PDT4456 flight status page for this flight to view local times or setup timezone preferences in your user account.

Time Position Orientation Groundspeed Altitude Reporting Facility
EDT Latitude Longitude Course Direction KTS MPH feet Rate Location/Type
Thu 05:24:28 PM 43.1083 -76.1064 144° Southeast 70 81 1,000  Level Boston Center
Thu 05:25:29 PM 43.1097 -76.0694 87° East 102 117 2,600 1,328 Climbing Boston Center
Thu 05:26:30 PM 43.0942 -76.0317 119° Southeast 121 139 3,700 712 Climbing Boston Center
Thu 05:27:00 PM 43.1148 -75.9341 16° North  Level FlightAware Approximate
Thu 05:27:27 PM 43.0728 -75.9819 120° Southeast 168 193 4,000  Level Boston Center
Thu 05:28:00 PM 43.1128 -75.8461 144° Southeast  Level FlightAware Approximate
Thu 05:28:27 PM 43.0431 -75.9319 129° Southeast 173 199 5,000  Level Boston Center
Thu 05:29:00 PM 43.0582 -75.7915 144° Southeast  Level FlightAware Approximate
Thu 05:29:27 PM 43.0153 -75.8850 129° Southeast 168 193 6,400  Level Boston Center
Thu 05:30:27 PM 42.9894 -75.8408 129° Southeast 185 213 7,500 1,050 Climbing Boston Center
Thu 05:31:27 PM 42.9514 -75.7878 134° Southeast 172 198 8,500 950 Climbing Boston Center
Thu 05:32:27 PM 42.9214 -75.7492 137° Southeast 181 208 9,400 950 Climbing Boston Center
Thu 05:33:27 PM 42.8833 -75.6961 134° Southeast 186 214 10,400 1,050 Climbing Boston Center
Thu 05:34:27 PM 42.8414 -75.6286 130° Southeast 191 220 11,500 1,000 Climbing Boston Center
Thu 05:35:27 PM 42.8033 -75.5672 130° Southeast 196 226 12,400 850 Climbing Boston Center
Thu 05:36:27 PM 42.7761 -75.4981 118° Southeast 203 234 13,200 800 Climbing Boston Center
Thu 05:37:27 PM 42.7742 -75.4186 92° East 198 228 14,000 800 Climbing Boston Center
Thu 05:38:27 PM 42.7719 -75.3367 92° East 208 239 14,800 650 Climbing Boston Center
Thu 05:39:27 PM 42.7717 -75.2686 90° East 213 245 15,300 650 Climbing Boston Center
Thu 05:40:27 PM 42.7697 -75.1725 92° East 218 251 16,100 591 Climbing Boston Center
Thu 05:41:39 PM 42.7678 -75.0817 92° East 218 251 16,600 455 Climbing Boston Center
Thu 05:42:39 PM 42.7681 -74.9800 90° East 223 257 17,100 250 Climbing Boston Center
Thu 05:43:39 PM 42.7639 -74.8836 93° East 229 264 17,100  Level Boston Center
Thu 05:44:39 PM 42.7619 -74.7733 91° East 250 288 17,100 -50 Level Boston Center
Thu 05:45:39 PM 42.7639 -74.6828 88° East 263 303 17,000 -50 Descending Boston Center
Thu 05:46:39 PM 42.7661 -74.5725 88° East 263 303 17,000  Level Boston Center
Thu 05:47:39 PM 42.7636 -74.4792 92° East 263 303 17,000  Level Boston Center
Thu 05:48:39 PM 42.7592 -74.3686 93° East 263 303 17,000  Level Boston Center
Thu 05:49:39 PM 42.7544 -74.2694 94° East 268 308 17,000  Level Boston Center
Thu 05:50:39 PM 42.7519 -74.1678 92° East 274 315 17,000  Level Boston Center
Thu 05:51:51 PM 42.7536 -74.0661 89° East 274 315 17,000  Level Boston Center
Thu 05:52:51 PM 42.7511 -73.9442 92° East 274 315 17,000  Level Boston Center
Thu 05:53:51 PM 42.7461 -73.8425 94° East 274 315 17,000  Level Boston Center
Thu 05:54:51 PM 42.7494 -73.7378 87° East 274 315 17,000  Level Boston Center
Thu 05:55:51 PM 42.7567 -73.6333 85° East 268 308 17,000  Level Boston Center
Thu 05:56:51 PM 42.7642 -73.5317 84° East 268 308 17,000  Level Boston Center
Thu 05:57:51 PM 42.7733 -73.4300 83° East 268 308 17,000  Level Boston Center
Thu 05:59:03 PM 42.7719 -73.3311 91° East 266 306 17,000  Level Boston Center
Thu 06:00:15 PM 42.7519 -73.2233 104° East 266 306 17,000  Level Boston Center
Thu 06:01:15 PM 42.7319 -73.1072 103° East 260 299 17,000  Level Boston Center
Thu 06:02:15 PM 42.7136 -72.9997 103° East 260 299 17,000 -50 Level Boston Center
Thu 06:03:15 PM 42.7017 -72.9119 100° East 260 299 16,900 -550 Descending Boston Center
Thu 06:04:15 PM 42.6811 -72.8044 105° East 266 306 15,900 -1,000 Descending Boston Center
Thu 06:05:15 PM 42.6564 -72.6969 107° East 284 327 14,900 -1,000 Descending Boston Center
Thu 06:06:15 PM 42.6378 -72.5842 103° East 296 341 13,900 -1,000 Descending Boston Center
Thu 06:07:15 PM 42.6214 -72.4711 101° East 301 346 12,900 -1,000 Descending Boston Center
Thu 06:08:15 PM 42.6047 -72.3583 101° East 301 346 11,900 -1,050 Descending Boston Center
Thu 06:09:15 PM 42.5817 -72.2400 105° East 290 334 10,800 -1,050 Descending Boston Center
Thu 06:10:15 PM 42.5667 -72.1442 102° East 284 327 9,800 -900 Descending Boston Center
Thu 06:11:15 PM 42.5497 -72.0342 102° East 278 320 9,000 -400 Descending Boston Center
Thu 06:12:15 PM 42.5411 -71.9556 98° East 244 281 9,000  Level Boston Center
Thu 06:13:15 PM 42.5303 -71.8597 99° East 237 273 9,000  Level Boston Center
Thu 06:14:15 PM 42.5194 -71.7781 100° East 237 273 9,000  Level Boston Center
Thu 06:15:15 PM 42.5083 -71.6853 99° East 237 273 9,000 -300 Level Boston Center
Thu 06:16:15 PM 42.4953 -71.6067 103° East 237 273 8,400 -711 Descending Boston Center
Thu 06:16:31 PM 42.4833 -71.5667 112° Southeast 244 281 8,100 -1,026 Descending KA90
Thu 06:17:31 PM 42.5000 -71.4833 75° East 235 270 7,100 -1,050 Descending KA90
Thu 06:18:31 PM 42.5333 -71.4000 61° Northeast 243 280 6,000 -496 Descending KA90
Thu 06:19:44 PM 42.5667 -71.3000 66° East 237 273 6,000  Level KA90
Thu 06:20:31 PM 42.5833 -71.2333 71° East 227 261 6,000 -400 Level KA90
Thu 06:21:44 PM 42.5667 -71.1333 103° East 233 268 5,200 -800 Descending KA90
Thu 06:22:31 PM 42.5500 -71.0833 114° Southeast 223 257 4,400 -1,278 Descending KA90
Thu 06:23:32 PM 42.5167 -71.0167 124° Southeast 201 231 2,900 -1,475 Descending KA90

Login

Don't have an account? Register now (free) for customized features, flight alerts, and more!